createdAt,value
2022-10-22T00:02:11.858Z,74.93
2022-10-22T00:06:19.378Z,75.17
2022-10-22T00:10:27.712Z,75.33
2022-10-22T00:14:35.495Z,75.59
2022-10-22T00:18:43.627Z,75.63
2022-10-22T00:27:05.967Z,75.67
2022-10-22T00:31:15.882Z,75.89
2022-10-22T00:35:23.646Z,75.68
2022-10-22T00:39:32.034Z,75.74
2022-10-22T00:43:56.738Z,75.82
2022-10-22T00:48:07.339Z,75.83
2022-10-22T00:52:15.328Z,75.77
2022-10-22T00:56:24.262Z,75.97
2022-10-22T01:00:33.603Z,76.02
2022-10-22T01:04:41.505Z,75.89
2022-10-22T01:08:57.724Z,75.80
2022-10-22T01:13:14.324Z,75.84
2022-10-22T01:17:29.800Z,76.01
2022-10-22T01:21:41.043Z,76.01
2022-10-22T01:25:55.906Z,76.03
2022-10-22T01:30:06.415Z,75.98
2022-10-22T01:34:15.556Z,76.28
2022-10-22T01:38:25.265Z,76.28
2022-10-22T01:42:33.263Z,76.36
2022-10-22T01:46:42.288Z,76.22
2022-10-22T01:51:00.077Z,76.51
2022-10-22T01:55:14.210Z,76.67
2022-10-22T01:59:26.667Z,76.71
2022-10-22T02:03:40.528Z,76.62
2022-10-22T02:07:51.134Z,76.80
2022-10-22T02:12:01.152Z,76.90
2022-10-22T02:16:18.521Z,76.89
2022-10-22T02:20:29.940Z,76.90
2022-10-22T02:24:37.841Z,76.82
2022-10-22T02:28:51.250Z,77.16
2022-10-22T02:33:01.977Z,77.00
2022-10-22T02:37:10.311Z,77.18
2022-10-22T02:41:18.703Z,77.09
2022-10-22T02:45:28.397Z,76.98
2022-10-22T02:49:36.720Z,77.32
2022-10-22T02:53:44.456Z,77.15
2022-10-22T02:57:52.090Z,76.99
2022-10-22T03:01:59.970Z,77.20
2022-10-22T03:06:09.180Z,77.12
2022-10-22T03:10:16.988Z,77.29
2022-10-22T03:14:25.587Z,77.18
2022-10-22T03:18:33.492Z,77.31
2022-10-22T03:22:44.534Z,77.28
2022-10-22T03:26:53.144Z,77.31
2022-10-22T03:31:00.980Z,77.38
2022-10-22T03:35:10.058Z,77.42
2022-10-22T03:39:20.220Z,77.48
2022-10-22T03:43:28.335Z,77.26
2022-10-22T03:47:36.971Z,77.19
2022-10-22T03:51:44.952Z,77.34
2022-10-22T03:55:53.209Z,77.38
2022-10-22T04:00:01.041Z,77.33
2022-10-22T04:04:14.079Z,77.12
2022-10-22T04:08:25.808Z,77.38
2022-10-22T04:12:33.974Z,77.21
2022-10-22T04:16:46.880Z,77.18
2022-10-22T04:20:56.915Z,77.31
2022-10-22T04:25:05.003Z,77.25
2022-10-22T04:29:16.091Z,77.18
2022-10-22T04:33:24.725Z,77.16
2022-10-22T04:37:34.517Z,77.16
2022-10-22T04:41:42.594Z,77.21
2022-10-22T04:45:50.574Z,77.37
2022-10-22T04:49:58.287Z,77.39
2022-10-22T04:54:06.211Z,77.46
2022-10-22T04:58:14.182Z,77.40
2022-10-22T05:02:21.779Z,77.50
2022-10-22T05:06:30.928Z,77.48
2022-10-22T05:10:39.491Z,77.70
2022-10-22T05:14:48.895Z,77.42
2022-10-22T05:18:56.698Z,77.58
2022-10-22T05:23:04.247Z,77.68
2022-10-22T05:27:12.413Z,77.66
2022-10-22T05:31:21.556Z,77.67
2022-10-22T05:35:29.978Z,77.83
2022-10-22T05:39:40.903Z,77.69
2022-10-22T05:43:49.753Z,77.92
2022-10-22T05:47:57.718Z,77.99
2022-10-22T05:52:06.204Z,78.10
2022-10-22T05:56:15.909Z,77.97
2022-10-22T06:00:23.879Z,78.04
2022-10-22T06:04:32.198Z,77.97
2022-10-22T06:08:40.246Z,77.95
2022-10-22T06:12:49.916Z,78.06
2022-10-22T06:17:01.062Z,78.21
2022-10-22T06:21:10.837Z,78.01
2022-10-22T06:25:19.039Z,77.96
2022-10-22T06:29:26.904Z,77.93
2022-10-22T06:33:42.593Z,77.88
2022-10-22T06:37:50.777Z,77.96
2022-10-22T06:41:59.013Z,77.90
2022-10-22T06:46:16.007Z,77.75
2022-10-22T06:50:27.293Z,77.92
2022-10-22T06:54:36.820Z,78.02
2022-10-22T06:58:48.239Z,77.78
2022-10-22T07:02:59.181Z,77.93
2022-10-22T07:07:08.225Z,77.99
2022-10-22T07:11:17.846Z,78.18
2022-10-22T07:15:26.244Z,78.28
2022-10-22T07:19:34.310Z,78.74
2022-10-22T07:23:43.568Z,78.86
2022-10-22T07:27:52.809Z,78.84
2022-10-22T07:32:03.434Z,78.89
2022-10-22T07:36:17.569Z,78.91
2022-10-22T07:40:25.447Z,79.02
2022-10-22T07:44:33.734Z,79.06
2022-10-22T07:48:42.329Z,79.04
2022-10-22T07:52:51.560Z,79.14
2022-10-22T07:57:00.717Z,79.39
2022-10-22T08:01:08.634Z,79.30
2022-10-22T08:05:23.420Z,79.59
2022-10-22T08:09:31.562Z,79.22
2022-10-22T08:13:44.142Z,79.49
2022-10-22T08:17:54.590Z,79.48
2022-10-22T08:22:03.803Z,79.73
2022-10-22T08:26:12.671Z,79.42
2022-10-22T08:30:20.925Z,79.59
2022-10-22T08:34:29.301Z,79.56
2022-10-22T08:38:37.111Z,79.72
2022-10-22T08:43:03.905Z,79.80
2022-10-22T08:47:26.044Z,79.86
2022-10-22T08:51:36.588Z,79.83
2022-10-22T08:55:44.063Z,79.69
2022-10-22T08:59:58.505Z,79.89
2022-10-22T09:04:12.203Z,79.92
2022-10-22T09:08:21.735Z,80.16
2022-10-22T09:12:30.965Z,80.00
2022-10-22T09:16:44.965Z,80.44
2022-10-22T09:20:57.553Z,80.30
2022-10-22T09:25:18.098Z,80.53
2022-10-22T09:29:33.996Z,80.58
2022-10-22T09:33:42.914Z,80.41
2022-10-22T09:37:57.159Z,80.26
2022-10-22T09:42:09.412Z,80.33
2022-10-22T09:46:21.418Z,80.29
2022-10-22T09:50:37.021Z,80.27
2022-10-22T09:54:46.470Z,80.24
2022-10-22T09:58:54.624Z,80.10
2022-10-22T10:03:03.703Z,80.11
2022-10-22T10:07:19.902Z,79.82
2022-10-22T10:11:33.620Z,79.92
2022-10-22T10:15:44.706Z,79.88
2022-10-22T10:20:03.904Z,79.60
2022-10-22T10:24:20.119Z,79.79
2022-10-22T10:28:39.499Z,79.66
2022-10-22T10:33:07.480Z,79.82
2022-10-22T10:37:22.440Z,79.68
2022-10-22T10:41:40.330Z,79.21
2022-10-22T10:45:56.469Z,78.81
2022-10-22T10:50:21.268Z,77.75
2022-10-22T10:54:50.822Z,77.77
2022-10-22T10:59:15.715Z,77.70
2022-10-22T11:03:54.775Z,77.01
2022-10-22T11:08:22.872Z,77.03
2022-10-22T11:12:41.088Z,76.44
2022-10-22T11:17:00.505Z,76.97
2022-10-22T11:21:22.234Z,76.79
2022-10-22T11:25:35.266Z,76.28
2022-10-22T11:29:57.458Z,75.42
2022-10-22T11:34:33.333Z,75.02
2022-10-22T11:38:47.406Z,74.50
2022-10-22T11:43:00.962Z,74.47
2022-10-22T11:47:33.040Z,74.44
2022-10-22T11:51:46.908Z,73.96
2022-10-22T11:56:10.194Z,73.70
2022-10-22T12:00:45.875Z,73.88
2022-10-22T12:04:55.269Z,73.50
2022-10-22T12:09:09.244Z,73.55
2022-10-22T12:13:27.160Z,73.74
2022-10-22T12:17:42.852Z,74.19
2022-10-22T12:21:57.674Z,74.09
2022-10-22T12:26:22.482Z,74.22
2022-10-22T12:30:37.104Z,74.19
2022-10-22T12:34:56.001Z,74.18
2022-10-22T12:39:23.450Z,74.47
2022-10-22T12:43:36.423Z,75.04
2022-10-22T12:47:51.229Z,75.62
2022-10-22T12:52:12.068Z,76.28
2022-10-22T12:56:27.816Z,76.81
2022-10-22T13:00:42.152Z,77.08
2022-10-22T13:05:23.422Z,77.23
2022-10-22T13:09:42.418Z,77.74
2022-10-22T13:13:53.415Z,77.88
2022-10-22T13:18:19.372Z,78.35
2022-10-22T13:22:44.905Z,78.64
2022-10-22T13:26:56.253Z,78.83
2022-10-22T13:31:21.224Z,79.03
2022-10-22T13:35:38.610Z,79.28
2022-10-22T13:39:53.059Z,79.50
2022-10-22T13:44:07.953Z,79.65
2022-10-22T13:48:19.500Z,79.60
2022-10-22T13:52:33.891Z,79.93
2022-10-22T13:56:46.399Z,79.81
2022-10-22T14:01:14.518Z,79.94
2022-10-22T14:05:25.711Z,80.04
2022-10-22T14:09:42.215Z,79.90
2022-10-22T14:13:52.147Z,79.95
2022-10-22T14:18:05.219Z,80.10
2022-10-22T14:22:20.095Z,80.19
2022-10-22T14:26:41.395Z,80.44
2022-10-22T14:30:59.557Z,80.67
2022-10-22T14:35:21.701Z,80.96
2022-10-22T14:39:35.414Z,81.23
2022-10-22T14:43:48.902Z,81.35
2022-10-22T14:48:05.082Z,81.48
2022-10-22T14:52:25.225Z,81.39
2022-10-22T14:56:46.791Z,81.26
2022-10-22T15:00:59.019Z,81.31
2022-10-22T15:05:11.257Z,81.33
2022-10-22T15:09:21.535Z,81.50
2022-10-22T15:13:31.878Z,81.46
2022-10-22T15:17:40.954Z,81.47
2022-10-22T15:21:51.247Z,81.56
2022-10-22T15:26:00.885Z,81.49
2022-10-22T15:30:16.343Z,81.66
2022-10-22T15:34:32.281Z,81.65
2022-10-22T15:38:41.195Z,81.78
2022-10-22T15:42:49.003Z,81.84
2022-10-22T15:46:57.819Z,81.96
2022-10-22T15:51:11.721Z,81.92
2022-10-22T15:55:19.580Z,81.96
2022-10-22T15:59:45.090Z,81.97
2022-10-22T16:04:05.715Z,82.06
2022-10-22T16:08:15.555Z,82.15
2022-10-22T16:12:30.598Z,82.11
2022-10-22T16:16:42.934Z,82.18
2022-10-22T16:20:51.275Z,82.31
2022-10-22T16:24:59.676Z,82.19
2022-10-22T16:29:08.671Z,82.45
2022-10-22T16:33:16.462Z,82.07
2022-10-22T16:37:25.229Z,82.31
2022-10-22T16:41:36.673Z,82.49
2022-10-22T16:45:50.750Z,82.50
2022-10-22T16:50:01.353Z,82.49
2022-10-22T16:54:12.236Z,82.32
2022-10-22T16:58:20.794Z,82.22
2022-10-22T17:02:28.790Z,82.25
2022-10-22T17:06:36.652Z,82.09
2022-10-22T17:10:44.675Z,81.79
2022-10-22T17:14:53.077Z,81.95
2022-10-22T17:19:02.105Z,81.79
2022-10-22T17:23:10.112Z,81.87
2022-10-22T17:27:17.920Z,81.68
2022-10-22T17:31:27.265Z,82.05
2022-10-22T17:35:36.552Z,82.19
2022-10-22T17:39:45.165Z,82.36
2022-10-22T17:43:53.342Z,82.10
2022-10-22T17:48:01.271Z,81.91
2022-10-22T17:52:11.311Z,82.01
2022-10-22T17:56:20.927Z,81.89
2022-10-22T18:00:29.651Z,81.67
2022-10-22T18:04:39.164Z,81.74
2022-10-22T18:08:47.749Z,81.51
2022-10-22T18:12:56.156Z,81.46
2022-10-22T18:17:04.951Z,81.46
2022-10-22T18:21:12.965Z,81.30
2022-10-22T18:25:21.274Z,81.46
2022-10-22T18:29:32.370Z,81.19
2022-10-22T18:33:41.170Z,81.14
2022-10-22T18:37:48.968Z,81.47
2022-10-22T18:41:58.559Z,81.12
2022-10-22T18:46:09.953Z,80.93
2022-10-22T18:50:18.377Z,80.83
2022-10-22T18:54:26.711Z,80.86
2022-10-22T18:58:34.501Z,80.71
2022-10-22T19:02:42.954Z,80.75
2022-10-22T19:06:50.863Z,80.68
2022-10-22T19:10:59.253Z,80.84
2022-10-22T19:15:10.604Z,80.61
2022-10-22T19:19:21.934Z,80.68
2022-10-22T19:23:30.742Z,80.55
2022-10-22T19:27:40.401Z,80.58
2022-10-22T19:31:48.757Z,80.57
2022-10-22T19:35:57.069Z,80.65
2022-10-22T19:40:06.697Z,80.50
2022-10-22T19:44:17.106Z,80.40
2022-10-22T19:48:25.949Z,80.23
2022-10-22T19:52:33.662Z,80.34
2022-10-22T19:56:45.780Z,80.21
2022-10-22T20:00:54.360Z,80.28
2022-10-22T20:05:03.427Z,80.18
2022-10-22T20:09:11.771Z,80.22
2022-10-22T20:13:25.005Z,79.94
2022-10-22T20:17:32.622Z,79.94
2022-10-22T20:21:40.719Z,79.88
2022-10-22T20:25:49.873Z,79.64
2022-10-22T20:29:58.751Z,79.94
2022-10-22T20:34:07.035Z,79.49
2022-10-22T20:38:16.403Z,79.49
2022-10-22T20:42:24.653Z,79.68
2022-10-22T20:46:33.938Z,79.71
2022-10-22T20:50:41.550Z,79.54
2022-10-22T20:54:49.620Z,79.16
2022-10-22T20:59:04.583Z,79.49
2022-10-22T21:03:12.436Z,79.14
2022-10-22T21:07:19.828Z,79.44
2022-10-22T21:11:27.869Z,79.49
2022-10-22T21:15:36.159Z,79.32
2022-10-22T21:19:44.194Z,79.15
2022-10-22T21:23:52.498Z,79.09
2022-10-22T21:28:01.292Z,79.40
2022-10-22T21:32:09.546Z,79.31
2022-10-22T21:36:21.683Z,79.00
2022-10-22T21:40:31.394Z,79.22
2022-10-22T21:44:39.212Z,79.33
2022-10-22T21:48:48.681Z,79.50
2022-10-22T21:52:56.311Z,79.42
2022-10-22T21:57:04.502Z,79.38
2022-10-22T22:01:13.553Z,79.48
2022-10-22T22:05:22.477Z,79.44
2022-10-22T22:09:30.429Z,79.52
2022-10-22T22:13:38.553Z,79.50
2022-10-22T22:17:46.600Z,79.61
2022-10-22T22:21:54.418Z,79.48
2022-10-22T22:26:03.436Z,79.53
2022-10-22T22:30:13.613Z,79.68
2022-10-22T22:34:21.497Z,79.54
2022-10-22T22:38:29.910Z,79.65
2022-10-22T22:42:37.128Z,79.77
2022-10-22T22:46:45.807Z,79.86
2022-10-22T22:50:54.312Z,79.85
2022-10-22T22:55:01.924Z,79.91
2022-10-22T22:59:12.216Z,79.96
2022-10-22T23:03:20.454Z,79.59
2022-10-22T23:07:28.279Z,79.91
2022-10-22T23:11:36.482Z,79.82
2022-10-22T23:15:44.403Z,80.09
2022-10-22T23:19:53.395Z,80.22
2022-10-22T23:24:02.782Z,80.03
2022-10-22T23:28:11.517Z,80.13
2022-10-22T23:32:19.525Z,80.20
2022-10-22T23:36:28.050Z,80.30
2022-10-22T23:40:35.975Z,80.35
2022-10-22T23:44:44.193Z,80.31
2022-10-22T23:48:53.855Z,80.31
2022-10-22T23:53:02.884Z,80.46
2022-10-22T23:57:11.937Z,80.36
